Time;durP1;ratioP1;P1;durP2;ratioP2;P2;SDS_P1;SDS_P2;PMS_P1;PMS_P2;Temp;Humidity;BMP_temperature;BMP_pressure;BME280_temperature;BME280_humidity;BME280_pressure;Samples;Min_cycle;Max_cycle;Signal;HPM_P1;HPM_P2
2021/05/06 00:02:13;;;;;;;2.88;2.05;;;;;12.30;100677.00;;;;5058334;28;20214;-77
2021/05/06 00:05:00;;;;;;;2.42;2.00;;;;;12.30;100665.00;;;;5068087;28;20200;-77
2021/05/06 00:10:50;;;;;;;2.13;1.88;;;;;12.30;100666.00;;;;5071526;28;20202;-77
2021/05/06 00:30:15;;;;;;;1.40;1.25;;;;;12.20;100647.00;;;;5071809;28;20213;-75
2021/05/06 00:32:48;;;;;;;3.75;1.38;;;;;12.20;100650.00;;;;5071290;28;20202;-75
2021/05/06 00:35:16;;;;;;;3.60;1.50;;;;;12.20;100646.00;;;;5071108;28;20329;-75
2021/05/06 00:37:53;;;;;;;3.15;1.73;;;;;12.20;100641.00;;;;5071197;28;20321;-75
2021/05/06 00:40:21;;;;;;;3.20;1.70;;;;;12.20;100640.00;;;;5071012;28;20622;-75
2021/05/06 00:46:10;;;;;;;1.25;1.15;;;;;12.20;100635.00;;;;5071238;28;20341;-76
2021/05/06 00:54:29;;;;;;;2.20;1.70;;;;;12.20;100634.00;;;;5048460;28;20222;-76
2021/05/06 00:57:01;;;;;;;3.63;1.75;;;;;12.10;100619.00;;;;5067330;28;20206;-76
2021/05/06 00:59:56;;;;;;;2.22;1.48;;;;;12.20;100629.00;;;;5070757;28;20583;-76
2021/05/06 01:02:37;;;;;;;2.95;1.45;;;;;12.10;100624.00;;;;5071403;28;20795;-76
2021/05/06 01:05:08;;;;;;;2.03;1.60;;;;;12.10;100619.00;;;;5070221;28;20237;-76
2021/05/06 01:07:47;;;;;;;1.83;1.65;;;;;12.10;100620.00;;;;5070473;28;20237;-77
2021/05/06 01:10:33;;;;;;;2.88;1.98;;;;;12.10;100614.00;;;;5070293;28;20244;-77
2021/05/06 01:13:00;;;;;;;3.10;1.63;;;;;12.10;100605.00;;;;5070243;28;20272;-77
2021/05/06 01:15:27;;;;;;;3.17;1.80;;;;;12.10;100606.00;;;;5070860;28;20210;-77
2021/05/06 01:17:53;;;;;;;2.92;1.88;;;;;12.10;100610.00;;;;5070996;28;20195;-77
2021/05/06 01:20:21;;;;;;;2.35;1.70;;;;;12.10;100610.00;;;;5069810;28;20202;-77
2021/05/06 01:22:49;;;;;;;2.97;2.00;;;;;12.10;100610.00;;;;5070809;28;20722;-77
2021/05/06 01:25:16;;;;;;;7.10;2.00;;;;;12.10;100605.00;;;;5074492;28;20560;-76
2021/05/06 01:27:47;;;;;;;2.80;2.20;;;;;12.10;100606.00;;;;5078338;28;20226;-75
2021/05/06 01:30:25;;;;;;;3.25;2.72;;;;;12.10;100602.00;;;;5069316;28;20211;-75
2021/05/06 01:32:55;;;;;;;2.40;2.03;;;;;12.10;100600.00;;;;5070615;28;20206;-75
2021/05/06 01:35:29;;;;;;;3.13;2.28;;;;;12.10;100600.00;;;;5074929;28;20285;-75
2021/05/06 01:38:08;;;;;;;3.00;2.22;;;;;12.10;100601.00;;;;5090509;28;20285;-75
2021/05/06 01:41:02;;;;;;;2.25;1.92;;;;;12.10;100599.00;;;;5089730;28;20201;-76
2021/05/06 01:43:40;;;;;;;2.80;2.25;;;;;12.10;100600.00;;;;5090389;28;20563;-76
2021/05/06 01:49:14;;;;;;;2.83;2.17;;;;;12.00;100603.00;;;;5089766;28;20607;-76
2021/05/06 01:59:59;;;;;;;2.40;2.20;;;;;11.80;100598.00;;;;5089687;28;20209;-77
2021/05/06 02:02:26;;;;;;;2.92;2.63;;;;;11.80;100594.00;;;;5090198;28;20199;-76
2021/05/06 02:04:52;;;;;;;4.18;2.70;;;;;11.70;100594.00;;;;5090151;28;20376;-76
2021/05/06 02:07:19;;;;;;;3.65;2.85;;;;;11.70;100598.00;;;;5088735;28;20707;-76
2021/05/06 02:09:48;;;;;;;4.05;2.70;;;;;11.60;100600.00;;;;5088920;28;20205;-76
2021/05/06 02:12:16;;;;;;;3.08;2.58;;;;;11.60;100597.00;;;;5089705;28;20244;-76
2021/05/06 02:14:51;;;;;;;3.47;2.42;;;;;11.60;100603.00;;;;5089606;28;20229;-76
2021/05/06 02:17:18;;;;;;;4.32;2.70;;;;;11.50;100601.00;;;;5089825;28;20310;-77
2021/05/06 02:19:47;;;;;;;4.15;3.05;;;;;11.50;100587.00;;;;5072717;28;20199;-77
2021/05/06 02:22:15;;;;;;;3.53;2.67;;;;;11.40;100588.00;;;;5069321;28;20203;-77
2021/05/06 02:24:42;;;;;;;4.35;2.83;;;;;11.40;100583.00;;;;5072073;28;20195;-77
2021/05/06 02:27:11;;;;;;;3.20;2.90;;;;;11.30;100581.00;;;;5078158;28;20207;-78
2021/05/06 02:29:37;;;;;;;3.50;2.50;;;;;11.30;100583.00;;;;5069047;28;20206;-77
2021/05/06 02:32:05;;;;;;;2.75;2.33;;;;;11.20;100586.00;;;;5068398;28;20203;-77
2021/05/06 02:34:32;;;;;;;3.58;2.88;;;;;11.20;100588.00;;;;5068861;28;20199;-77
2021/05/06 02:36:59;;;;;;;4.57;3.08;;;;;11.10;100579.00;;;;5068461;28;20202;-77
2021/05/06 02:39:26;;;;;;;3.25;2.95;;;;;11.10;100571.00;;;;5069375;28;20205;-77
2021/05/06 02:41:53;;;;;;;3.22;2.40;;;;;11.10;100571.00;;;;5069161;28;20203;-77
2021/05/06 02:44:20;;;;;;;3.13;2.65;;;;;11.00;100569.00;;;;5069210;28;20214;-77
2021/05/06 02:46:47;;;;;;;3.75;2.92;;;;;11.00;100575.00;;;;5069036;28;20207;-77
2021/05/06 02:49:14;;;;;;;3.75;3.10;;;;;10.90;100575.00;;;;5069095;28;20254;-77
2021/05/06 02:51:45;;;;;;;5.80;2.97;;;;;10.90;100574.00;;;;5068897;28;20199;-77
2021/05/06 02:54:12;;;;;;;5.15;3.30;;;;;10.80;100564.00;;;;5068756;28;20587;-77
2021/05/06 02:56:45;;;;;;;4.28;3.67;;;;;10.80;100559.00;;;;5069076;28;20202;-77
2021/05/06 03:02:41;;;;;;;3.47;3.13;;;;;10.70;100561.00;;;;5069057;28;20228;-77
2021/05/06 03:05:06;;;;;;;3.90;3.33;;;;;10.60;100563.00;;;;5068560;28;20202;-77
2021/05/06 03:07:34;;;;;;;4.22;3.28;;;;;10.60;100564.00;;;;5068417;28;20245;-77
2021/05/06 03:10:06;;;;;;;4.18;3.42;;;;;10.50;100555.00;;;;5068406;28;20206;-77
2021/05/06 03:12:56;;;;;;;4.57;3.42;;;;;10.50;100547.00;;;;5067977;28;20207;-78
2021/05/06 03:23:46;;;;;;;4.07;3.17;;;;;10.30;100552.00;;;;5068735;28;20252;-77
2021/05/06 03:26:14;;;;;;;4.55;3.47;;;;;10.20;100548.00;;;;5082117;28;20216;-77
2021/05/06 03:28:44;;;;;;;5.05;3.78;;;;;10.20;100554.00;;;;5088999;28;20225;-77
2021/05/06 03:31:25;;;;;;;4.15;3.15;;;;;10.20;100549.00;;;;5088045;28;20647;-77
2021/05/06 03:42:20;;;;;;;4.05;3.33;;;;;10.00;100543.00;;;;5068109;28;20271;-77
2021/05/06 03:44:57;;;;;;;3.45;2.88;;;;;10.00;100546.00;;;;5071951;28;20244;-77
2021/05/06 03:50:58;;;;;;;4.63;3.83;;;;;9.90;100532.00;;;;5071909;28;20583;-77
2021/05/06 04:13:07;;;;;;;5.57;4.03;;;;;9.90;100539.00;;;;5071272;28;20423;-77
2021/05/06 04:16:01;;;;;;;5.63;4.18;;;;;9.90;100535.00;;;;5071657;28;20245;-77
2021/05/06 04:18:30;;;;;;;5.03;3.83;;;;;9.90;100538.00;;;;5071681;28;20202;-77
2021/05/06 04:26:38;;;;;;;4.65;3.30;;;;;9.90;100534.00;;;;5016457;28;20589;-77
2021/05/06 04:37:25;;;;;;;4.55;3.60;;;;;10.00;100535.00;;;;5091043;28;20221;-77
2021/05/06 04:39:56;;;;;;;5.57;3.60;;;;;10.10;100532.00;;;;5091865;28;20214;-77
2021/05/06 04:53:33;;;;;;;5.57;3.58;;;;;10.30;100541.00;;;;5071454;28;20559;-77
2021/05/06 04:56:11;;;;;;;4.63;3.65;;;;;10.30;100536.00;;;;5069468;28;20198;-77
2021/05/06 05:04:08;;;;;;;4.90;3.80;;;;;10.50;100528.00;;;;5070053;28;20210;-77
2021/05/06 05:06:38;;;;;;;5.07;4.00;;;;;10.50;100532.00;;;;5070827;28;20817;-77
2021/05/06 05:09:21;;;;;;;4.32;3.70;;;;;10.50;100530.00;;;;5070314;28;20649;-77
2021/05/06 05:11:53;;;;;;;6.07;4.40;;;;;10.60;100537.00;;;;5070909;28;20662;-77
2021/05/06 05:20:04;;;;;;;5.78;4.57;;;;;10.70;100533.00;;;;5070680;28;20649;-77
2021/05/06 05:25:20;;;;;;;7.10;4.60;;;;;10.70;100540.00;;;;5074761;28;20259;-77
2021/05/06 05:27:47;;;;;;;6.75;4.93;;;;;10.80;100536.00;;;;5090326;28;20276;-77
2021/05/06 05:30:15;;;;;;;6.80;5.10;;;;;10.80;100537.00;;;;5090218;28;20579;-77
2021/05/06 05:32:42;;;;;;;6.22;4.63;;;;;10.90;100536.00;;;;5090863;28;20244;-77
2021/05/06 05:35:13;;;;;;;6.45;5.07;;;;;11.00;100533.00;;;;5070540;28;20649;-77
2021/05/06 05:37:43;;;;;;;6.80;4.60;;;;;11.00;100536.00;;;;5069498;28;20669;-77
2021/05/06 05:40:21;;;;;;;6.28;4.55;;;;;11.10;100532.00;;;;5070484;28;20199;-77
2021/05/06 05:42:59;;;;;;;8.68;5.40;;;;;11.20;100541.00;;;;5069996;28;20191;-74
2021/05/06 05:56:30;;;;;;;6.13;4.88;;;;;11.50;100544.00;;;;5069838;28;20238;-75
2021/05/06 05:58:57;;;;;;;7.28;5.32;;;;;11.60;100546.00;;;;5069815;28;20207;-75
2021/05/06 06:01:24;;;;;;;7.38;5.70;;;;;11.60;100545.00;;;;5069394;28;20272;-75
2021/05/06 06:03:51;;;;;;;9.05;6.68;;;;;11.70;100541.00;;;;5069817;28;20626;-76
2021/05/06 06:06:18;;;;;;;7.63;5.55;;;;;11.80;100538.00;;;;5067922;28;20246;-76
2021/05/06 06:08:45;;;;;;;8.18;5.90;;;;;11.80;100530.00;;;;5070186;28;20299;-76
2021/05/06 06:11:11;;;;;;;7.43;5.78;;;;;11.90;100533.00;;;;5069514;28;20214;-76
2021/05/06 06:13:38;;;;;;;8.43;6.38;;;;;12.00;100538.00;;;;5069589;28;20223;-76
2021/05/06 06:16:10;;;;;;;6.82;5.78;;;;;12.00;100540.00;;;;5068695;28;20202;-76
2021/05/06 06:18:41;;;;;;;7.40;5.72;;;;;12.10;100532.00;;;;5069635;28;20621;-76
2021/05/06 06:21:13;;;;;;;7.13;5.88;;;;;12.20;100539.00;;;;5068869;28;20274;-76
2021/05/06 06:23:40;;;;;;;6.88;5.82;;;;;12.20;100541.00;;;;5069403;28;20198;-76
2021/05/06 06:26:07;;;;;;;6.03;5.25;;;;;12.30;100545.00;;;;5076322;28;20209;-76
2021/05/06 06:28:38;;;;;;;7.30;5.68;;;;;12.30;100542.00;;;;5068469;28;20696;-76
2021/05/06 06:31:11;;;;;;;6.63;5.60;;;;;12.40;100545.00;;;;5068655;28;20210;-76
2021/05/06 06:33:38;;;;;;;7.30;5.57;;;;;12.40;100546.00;;;;5069408;28;20198;-76
2021/05/06 06:36:06;;;;;;;7.43;5.85;;;;;12.50;100552.00;;;;5068543;28;20202;-76
2021/05/06 06:38:33;;;;;;;8.10;5.95;;;;;12.60;100548.00;;;;5069561;28;20199;-76
2021/05/06 06:40:59;;;;;;;8.52;5.68;;;;;12.60;100556.00;;;;5070220;28;20198;-76
2021/05/06 06:43:26;;;;;;;9.60;5.95;;;;;12.70;100539.00;;;;5089155;28;20194;-76
2021/05/06 06:45:53;;;;;;;6.95;5.97;;;;;12.70;100548.00;;;;5089096;28;20205;-76
2021/05/06 06:48:20;;;;;;;6.32;5.65;;;;;12.80;100550.00;;;;5088876;28;20237;-76
2021/05/06 06:50:47;;;;;;;6.93;5.28;;;;;12.90;100546.00;;;;5089757;28;20206;-76
2021/05/06 06:53:15;;;;;;;6.75;5.32;;;;;12.90;100549.00;;;;5088950;28;20205;-76
2021/05/06 06:55:42;;;;;;;5.45;4.40;;;;;13.00;100546.00;;;;5088964;28;20313;-76
2021/05/06 06:58:11;;;;;;;5.25;4.38;;;;;13.00;100549.00;;;;5087668;28;20250;-76
2021/05/06 07:00:38;;;;;;;4.72;4.25;;;;;13.20;100546.00;;;;5089268;28;20686;-76
2021/05/06 07:03:06;;;;;;;5.72;4.22;;;;;13.30;100543.00;;;;5088967;28;20198;-76
2021/05/06 07:05:34;;;;;;;5.25;3.47;;;;;13.40;100541.00;;;;5088687;28;20205;-76
2021/05/06 07:08:15;;;;;;;4.53;3.55;;;;;13.50;100538.00;;;;5088217;28;20506;-77
2021/05/06 07:10:43;;;;;;;4.38;2.95;;;;;13.70;100540.00;;;;5089614;28;20205;-76
2021/05/06 07:13:10;;;;;;;4.13;3.10;;;;;13.70;100538.00;;;;5088482;28;20214;-76
2021/05/06 07:15:36;;;;;;;4.03;3.47;;;;;13.80;100539.00;;;;5081901;28;20664;-76
2021/05/06 07:18:04;;;;;;;3.90;3.33;;;;;13.90;100531.00;;;;5067950;28;20272;-76
2021/05/06 07:20:31;;;;;;;4.30;3.47;;;;;14.00;100529.00;;;;5068320;28;20706;-76
2021/05/06 07:22:58;;;;;;;3.47;3.15;;;;;14.00;100532.00;;;;5068424;28;20199;-76
2021/05/06 07:25:25;;;;;;;4.63;3.58;;;;;14.10;100533.00;;;;5069819;28;20244;-76
2021/05/06 07:27:52;;;;;;;3.05;2.75;;;;;14.20;100518.00;;;;5079498;28;20292;-76
2021/05/06 07:30:20;;;;;;;4.15;3.00;;;;;14.30;100530.00;;;;5067830;28;20221;-77
2021/05/06 07:32:46;;;;;;;3.42;3.13;;;;;14.40;100526.00;;;;5076728;28;20213;-76
2021/05/06 07:35:14;;;;;;;3.88;3.08;;;;;14.50;100531.00;;;;5088377;28;20433;-76
2021/05/06 07:37:41;;;;;;;4.35;3.10;;;;;14.70;100533.00;;;;5088777;28;20209;-77
2021/05/06 07:40:10;;;;;;;5.53;3.45;;;;;14.80;100535.00;;;;5088776;28;20710;-76
2021/05/06 07:42:39;;;;;;;4.30;3.05;;;;;14.90;100534.00;;;;5088717;28;20206;-77
2021/05/06 07:45:07;;;;;;;3.70;3.03;;;;;15.00;100537.00;;;;5088228;28;20202;-77
2021/05/06 07:47:34;;;;;;;3.15;2.65;;;;;15.10;100537.00;;;;5088706;28;20664;-77
2021/05/06 07:50:01;;;;;;;3.80;3.40;;;;;15.10;100537.00;;;;5087514;28;20202;-77
2021/05/06 07:52:27;;;;;;;4.32;3.45;;;;;15.10;100539.00;;;;5088914;28;20567;-77
2021/05/06 07:54:55;;;;;;;3.53;2.95;;;;;15.10;100543.00;;;;5088379;28;20199;-77
2021/05/06 07:57:23;;;;;;;3.35;3.05;;;;;15.10;100543.00;;;;5088108;28;20202;-77
2021/05/06 07:59:50;;;;;;;4.63;3.40;;;;;15.20;100548.00;;;;5088713;28;20203;-77
2021/05/06 08:02:17;;;;;;;4.85;3.92;;;;;15.20;100540.00;;;;5088683;28;20209;-77
2021/05/06 08:04:44;;;;;;;5.95;3.80;;;;;15.30;100544.00;;;;5088741;28;20213;-77
2021/05/06 08:07:10;;;;;;;4.30;3.25;;;;;15.30;100545.00;;;;5087212;28;20230;-77
2021/05/06 08:09:37;;;;;;;4.82;3.58;;;;;15.30;100551.00;;;;5087940;28;20229;-77
2021/05/06 08:12:05;;;;;;;4.95;3.88;;;;;15.40;100542.00;;;;5088379;28;20218;-77
2021/05/06 08:14:33;;;;;;;5.47;4.93;;;;;15.40;100542.00;;;;5088423;28;20215;-77
2021/05/06 08:17:00;;;;;;;5.28;4.47;;;;;15.50;100536.00;;;;5069461;28;20199;-77
2021/05/06 08:19:26;;;;;;;6.60;5.75;;;;;15.50;100545.00;;;;5068290;28;20203;-77
2021/05/06 08:21:53;;;;;;;6.70;5.85;;;;;15.60;100540.00;;;;5067546;28;20715;-77
2021/05/06 08:24:20;;;;;;;7.15;6.40;;;;;15.60;100533.00;;;;5068395;28;20586;-77
2021/05/06 08:26:47;;;;;;;7.00;6.30;;;;;15.60;100527.00;;;;5082624;28;20209;-77
2021/05/06 08:29:13;;;;;;;7.75;6.57;;;;;15.70;100520.00;;;;5087677;28;20442;-77
2021/05/06 08:31:41;;;;;;;5.72;5.13;;;;;15.80;100532.00;;;;5091658;28;20248;-77
2021/05/06 08:34:08;;;;;;;6.70;5.93;;;;;15.90;100521.00;;;;5091163;28;20201;-77
2021/05/06 08:36:34;;;;;;;6.45;5.45;;;;;16.00;100517.00;;;;5092138;28;20213;-77
2021/05/06 08:39:03;;;;;;;4.93;4.40;;;;;16.00;100517.00;;;;5091112;28;20251;-77
2021/05/06 08:41:30;;;;;;;5.90;5.30;;;;;16.00;100513.00;;;;5077583;28;20203;-77
2021/05/06 08:43:59;;;;;;;5.40;4.82;;;;;16.10;100510.00;;;;5071747;28;20620;-77
2021/05/06 08:46:32;;;;;;;7.18;5.20;;;;;16.10;100510.00;;;;5072231;28;20219;-77
2021/05/06 08:49:01;;;;;;;4.75;4.22;;;;;16.20;100500.00;;;;5071382;28;20226;-78
2021/05/06 08:51:29;;;;;;;4.70;4.25;;;;;16.40;100507.00;;;;5071069;28;20210;-78
2021/05/06 08:53:56;;;;;;;6.43;5.60;;;;;16.50;100508.00;;;;5071495;28;20199;-77
2021/05/06 08:56:23;;;;;;;8.20;4.65;;;;;16.60;100518.00;;;;5071771;28;20206;-78
2021/05/06 08:58:50;;;;;;;6.50;5.43;;;;;16.60;100506.00;;;;5071693;28;20206;-77
2021/05/06 09:01:17;;;;;;;6.20;5.35;;;;;16.80;100500.00;;;;5073029;28;20321;-78
2021/05/06 09:03:44;;;;;;;5.82;5.03;;;;;16.90;100494.00;;;;5072533;28;20207;-77
2021/05/06 09:06:16;;;;;;;5.38;4.85;;;;;17.00;100498.00;;;;5071103;28;20230;-78
2021/05/06 09:08:43;;;;;;;6.95;5.15;;;;;17.10;100509.00;;;;5072064;28;20227;-78
2021/05/06 09:11:11;;;;;;;5.85;4.47;;;;;17.10;100503.00;;;;5070466;28;20210;-78
2021/05/06 09:13:38;;;;;;;6.10;3.90;;;;;17.20;100508.00;;;;5071272;28;20214;-79
2021/05/06 09:16:05;;;;;;;5.65;4.45;;;;;17.20;100495.00;;;;5072069;28;20218;-78
2021/05/06 09:18:40;;;;;;;4.22;3.83;;;;;17.30;100505.00;;;;5072231;28;20622;-78
2021/05/06 09:21:09;;;;;;;5.35;4.30;;;;;17.40;100501.00;;;;5070871;28;20236;-78
2021/05/06 09:23:37;;;;;;;7.80;4.32;;;;;17.50;100505.00;;;;5071469;28;20203;-78
2021/05/06 09:26:06;;;;;;;4.55;4.10;;;;;17.60;100491.00;;;;5079909;28;20233;-79
2021/05/06 09:28:35;;;;;;;4.25;3.85;;;;;17.80;100488.00;;;;5091911;28;20287;-79
2021/05/06 09:31:04;;;;;;;4.63;4.18;;;;;17.90;100495.00;;;;5090654;28;20636;-78
2021/05/06 09:33:34;;;;;;;6.78;3.97;;;;;18.10;100497.00;;;;5091481;28;20202;-79
2021/05/06 09:36:12;;;;;;;5.32;3.50;;;;;18.20;100498.00;;;;5090726;28;20247;-78
2021/05/06 09:38:42;;;;;;;3.97;3.58;;;;;18.40;100495.00;;;;5091903;28;20273;-78
2021/05/06 09:41:10;;;;;;;5.93;4.30;;;;;18.50;100496.00;;;;5091331;28;20285;-79
2021/05/06 09:43:40;;;;;;;5.38;4.50;;;;;18.50;100503.00;;;;5091756;28;20186;-78
2021/05/06 09:46:24;;;;;;;4.30;3.78;;;;;18.50;100494.00;;;;5092086;28;20218;-79
2021/05/06 09:48:59;;;;;;;4.88;4.22;;;;;18.60;100504.00;;;;5090906;28;20295;-79
2021/05/06 09:51:34;;;;;;;4.82;4.03;;;;;18.60;100494.00;;;;5090899;28;20289;-79
2021/05/06 09:54:03;;;;;;;4.85;4.45;;;;;18.70;100493.00;;;;5091347;28;20190;-78
2021/05/06 09:56:30;;;;;;;4.93;4.43;;;;;18.70;100486.00;;;;5092391;28;20198;-79
2021/05/06 09:58:58;;;;;;;5.50;4.45;;;;;18.80;100488.00;;;;5089888;28;20667;-79
2021/05/06 10:01:33;;;;;;;5.00;4.50;;;;;18.80;100497.00;;;;5090813;28;20578;-78
2021/05/06 10:04:13;;;;;;;4.18;3.75;;;;;18.80;100491.00;;;;5090431;28;20201;-78
2021/05/06 10:06:41;;;;;;;4.30;3.90;;;;;18.90;100489.00;;;;5090303;28;20226;-78
2021/05/06 10:09:09;;;;;;;4.25;3.80;;;;;18.90;100489.00;;;;5091181;28;20699;-79
2021/05/06 10:11:36;;;;;;;4.35;3.55;;;;;19.00;100482.00;;;;5091227;28;20198;-79
2021/05/06 10:14:03;;;;;;;4.32;3.42;;;;;18.90;100483.00;;;;5088592;28;20214;-79
2021/05/06 10:16:30;;;;;;;4.57;3.55;;;;;18.90;100486.00;;;;5070560;28;20210;-78
2021/05/06 10:18:57;;;;;;;4.55;3.40;;;;;18.90;100478.00;;;;5070153;28;20668;-79
2021/05/06 10:21:24;;;;;;;4.20;3.80;;;;;18.80;100480.00;;;;5070121;28;20218;-78
2021/05/06 10:23:54;;;;;;;3.78;3.17;;;;;18.80;100473.00;;;;5069724;28;20211;-79
2021/05/06 10:26:24;;;;;;;3.85;3.10;;;;;18.90;100464.00;;;;5075475;28;20607;-79
2021/05/06 10:28:52;;;;;;;3.67;3.35;;;;;18.90;100473.00;;;;5075619;28;20222;-79
2021/05/06 10:31:19;;;;;;;6.78;3.30;;;;;18.90;100474.00;;;;5069122;28;20190;-79
2021/05/06 10:33:46;;;;;;;3.97;3.30;;;;;19.00;100471.00;;;;5069937;28;20202;-79
2021/05/06 10:36:15;;;;;;;4.18;3.78;;;;;19.00;100472.00;;;;5069165;28;20226;-79
2021/05/06 10:38:43;;;;;;;3.97;3.40;;;;;19.00;100482.00;;;;5069881;28;20197;-79
2021/05/06 10:41:32;;;;;;;3.65;2.65;;;;;18.80;100498.00;;;;5070009;28;20648;-78
2021/05/06 10:44:00;;;;;;;1.65;1.55;;;;;18.80;100494.00;;;;5069479;28;20216;-78
2021/05/06 10:46:59;;;;;;;3.15;1.27;;;;;18.60;100489.00;;;;5069585;28;20263;-78
2021/05/06 10:49:28;;;;;;;2.00;1.40;;;;;18.50;100487.00;;;;5070147;28;20611;-78
2021/05/06 10:52:07;;;;;;;1.60;1.23;;;;;18.30;100499.00;;;;5070300;28;20199;-78
2021/05/06 10:54:36;;;;;;;1.80;1.40;;;;;18.20;100483.00;;;;5069895;28;20206;-78
2021/05/06 10:57:28;;;;;;;1.88;1.20;;;;;17.90;100483.00;;;;5069852;28;20203;-78
2021/05/06 10:59:55;;;;;;;1.48;1.23;;;;;17.80;100474.00;;;;5069468;28;20572;-78
2021/05/06 11:02:47;;;;;;;1.73;1.40;;;;;17.50;100474.00;;;;5069352;28;20273;-78
2021/05/06 11:05:15;;;;;;;2.55;1.85;;;;;17.50;100479.00;;;;5068300;28;20195;-78
2021/05/06 11:07:42;;;;;;;2.60;1.88;;;;;17.40;100484.00;;;;5069609;28;20229;-78
2021/05/06 11:10:10;;;;;;;2.03;1.67;;;;;17.20;100474.00;;;;5069696;28;20288;-78
2021/05/06 11:12:56;;;;;;;1.70;1.60;;;;;17.10;100479.00;;;;5068730;28;20203;-78
2021/05/06 11:15:24;;;;;;;2.83;1.50;;;;;17.10;100487.00;;;;5069140;28;20205;-78
2021/05/06 11:17:52;;;;;;;4.05;1.50;;;;;17.00;100487.00;;;;5069300;28;20203;-78
2021/05/06 11:20:39;;;;;;;2.97;1.33;;;;;16.90;100484.00;;;;5069537;28;20238;-78
2021/05/06 11:23:19;;;;;;;1.98;1.60;;;;;16.80;100486.00;;;;5067521;28;20707;-78
2021/05/06 11:25:50;;;;;;;1.90;1.65;;;;;16.80;100484.00;;;;5073165;28;20194;-78
2021/05/06 11:28:39;;;;;;;1.30;1.10;;;;;16.70;100481.00;;;;5089475;28;20770;-78
2021/05/06 11:31:06;;;;;;;1.65;1.20;;;;;16.80;100482.00;;;;5077939;28;20244;-78
2021/05/06 11:33:33;;;;;;;1.52;1.08;;;;;16.80;100480.00;;;;5068873;28;20199;-78
2021/05/06 11:36:02;;;;;;;1.80;1.40;;;;;16.80;100481.00;;;;5069054;28;20206;-77
2021/05/06 11:38:51;;;;;;;1.33;1.05;;;;;16.70;100481.00;;;;5070395;28;20215;-78
2021/05/06 11:41:22;;;;;;;1.05;0.95;;;;;17.00;100474.00;;;;5069256;28;20672;-77
2021/05/06 11:43:50;;;;;;;1.25;1.10;;;;;17.10;100465.00;;;;5069969;28;20187;-78
2021/05/06 11:46:19;;;;;;;1.83;1.17;;;;;17.20;100465.00;;;;5068261;28;20202;-77
2021/05/06 11:48:47;;;;;;;1.52;1.30;;;;;17.30;100464.00;;;;5069379;28;20226;-77
2021/05/06 11:51:26;;;;;;;2.47;1.73;;;;;17.30;100464.00;;;;5069767;28;20221;-77
2021/05/06 11:54:04;;;;;;;1.80;1.27;;;;;17.40;100463.00;;;;5069535;28;20190;-78
2021/05/06 11:56:32;;;;;;;1.45;1.17;;;;;17.60;100458.00;;;;5069857;28;20567;-78
2021/05/06 11:58:59;;;;;;;1.20;1.10;;;;;17.70;100468.00;;;;5068698;28;21076;-78
2021/05/06 12:01:27;;;;;;;2.45;1.42;;;;;17.70;100459.00;;;;5068573;28;20289;-77
2021/05/06 12:03:55;;;;;;;2.17;1.42;;;;;17.80;100450.00;;;;5069147;28;20237;-78
2021/05/06 12:06:33;;;;;;;1.67;1.40;;;;;17.80;100453.00;;;;5071897;28;20230;-76
2021/05/06 12:09:01;;;;;;;2.50;2.05;;;;;17.90;100452.00;;;;5073481;28;20226;-78
2021/05/06 12:11:39;;;;;;;1.60;1.50;;;;;17.80;100453.00;;;;5074742;28;20571;-79
2021/05/06 12:14:08;;;;;;;1.95;1.70;;;;;17.90;100447.00;;;;5074262;28;20572;-78
2021/05/06 12:16:36;;;;;;;2.92;1.90;;;;;18.00;100445.00;;;;5075404;28;20203;-77
2021/05/06 12:19:05;;;;;;;3.25;1.42;;;;;18.00;100427.00;;;;5073197;28;20187;-78
2021/05/06 12:21:36;;;;;;;2.58;1.80;;;;;18.10;100440.00;;;;5079189;28;20198;-78
2021/05/06 12:24:04;;;;;;;1.70;1.60;;;;;18.30;100436.00;;;;5092967;28;20577;-78
2021/05/06 12:26:31;;;;;;;2.47;2.28;;;;;18.40;100444.00;;;;5084437;28;20256;-78
2021/05/06 12:28:57;;;;;;;2.15;1.85;;;;;18.40;100440.00;;;;5072967;28;20602;-78
2021/05/06 12:31:26;;;;;;;3.15;2.15;;;;;18.40;100433.00;;;;5075502;28;20207;-78
2021/05/06 12:33:53;;;;;;;2.28;2.00;;;;;18.50;100434.00;;;;5074454;28;20195;-78
2021/05/06 12:36:20;;;;;;;2.10;1.40;;;;;18.50;100433.00;;;;5074685;28;20206;-78
2021/05/06 12:38:49;;;;;;;2.40;2.20;;;;;18.50;100436.00;;;;5083540;28;20694;-78
2021/05/06 12:41:18;;;;;;;2.15;1.92;;;;;18.60;100429.00;;;;5098504;28;20194;-77
2021/05/06 12:43:51;;;;;;;1.98;1.75;;;;;18.50;100421.00;;;;5097751;28;20205;-78
2021/05/06 12:46:24;;;;;;;2.47;1.83;;;;;18.60;100415.00;;;;5097617;28;20202;-78
2021/05/06 12:48:57;;;;;;;1.85;1.55;;;;;18.60;100415.00;;;;5100817;28;20607;-78
2021/05/06 12:51:30;;;;;;;2.03;1.83;;;;;18.70;100415.00;;;;5102033;28;20202;-77
2021/05/06 12:54:05;;;;;;;2.53;1.98;;;;;18.80;100404.00;;;;5096253;28;20205;-78
2021/05/06 12:56:33;;;;;;;1.55;1.45;;;;;18.90;100410.00;;;;5094950;28;20206;-77
2021/05/06 12:59:21;;;;;;;2.00;1.75;;;;;18.90;100410.00;;;;5096267;28;20207;-78
2021/05/06 13:01:49;;;;;;;2.22;1.90;;;;;19.00;100400.00;;;;5096478;28;20202;-78
2021/05/06 13:04:16;;;;;;;2.78;2.10;;;;;19.10;100408.00;;;;5097020;28;20237;-79
2021/05/06 13:06:43;;;;;;;2.90;1.80;;;;;19.10;100406.00;;;;5095600;28;20226;-79
2021/05/06 13:09:14;;;;;;;2.05;1.80;;;;;19.10;100399.00;;;;5099099;28;20711;-79
2021/05/06 13:11:42;;;;;;;3.03;2.17;;;;;19.20;100403.00;;;;5097239;28;20190;-79
2021/05/06 13:14:12;;;;;;;2.10;1.88;;;;;19.20;100405.00;;;;5089012;28;20305;-79
2021/05/06 13:16:44;;;;;;;2.20;1.88;;;;;19.30;100395.00;;;;5094534;28;20196;-78
2021/05/06 13:19:13;;;;;;;2.70;2.10;;;;;19.40;100390.00;;;;5098402;28;20195;-79
2021/05/06 13:21:48;;;;;;;2.10;1.70;;;;;19.40;100382.00;;;;5107848;28;20190;-79
2021/05/06 13:24:15;;;;;;;2.45;1.73;;;;;19.60;100385.00;;;;5105930;28;20781;-79
2021/05/06 13:26:43;;;;;;;2.40;1.98;;;;;19.60;100377.00;;;;5099449;28;20209;-79
2021/05/06 13:29:14;;;;;;;2.33;1.80;;;;;19.70;100373.00;;;;5093983;28;20253;-78
2021/05/06 13:31:42;;;;;;;2.40;1.90;;;;;19.70;100368.00;;;;5086868;28;20555;-79
2021/05/06 13:34:20;;;;;;;1.75;1.48;;;;;19.80;100378.00;;;;5078917;28;20244;-78
2021/05/06 13:37:00;;;;;;;2.10;1.90;;;;;19.70;100369.00;;;;5074868;28;20191;-78
2021/05/06 13:39:27;;;;;;;2.50;1.80;;;;;19.90;100372.00;;;;5074830;28;20196;-79
2021/05/06 13:41:55;;;;;;;2.72;1.63;;;;;19.90;100374.00;;;;5075381;28;20198;-79
2021/05/06 13:44:24;;;;;;;2.25;1.83;;;;;20.00;100373.00;;;;5075363;28;20248;-79
2021/05/06 13:46:53;;;;;;;1.77;1.67;;;;;20.00;100371.00;;;;5077761;28;20230;-79
2021/05/06 13:49:21;;;;;;;2.50;1.88;;;;;20.10;100369.00;;;;5080477;28;20229;-79
2021/05/06 13:51:49;;;;;;;3.03;2.05;;;;;20.20;100356.00;;;;5084135;28;20199;-79
2021/05/06 13:54:17;;;;;;;2.72;2.20;;;;;20.40;100363.00;;;;5084837;28;20195;-79
2021/05/06 13:56:44;;;;;;;2.40;2.00;;;;;20.70;100363.00;;;;5083451;28;20202;-79
2021/05/06 13:59:11;;;;;;;2.10;1.83;;;;;20.80;100358.00;;;;5084240;28;20213;-80
2021/05/06 14:01:39;;;;;;;2.15;1.95;;;;;21.00;100356.00;;;;5084110;28;20195;-80
2021/05/06 14:04:06;;;;;;;2.85;1.98;;;;;21.10;100354.00;;;;5085224;28;20214;-80
2021/05/06 14:06:33;;;;;;;2.08;1.88;;;;;21.20;100352.00;;;;5083395;28;20218;-79
2021/05/06 14:09:01;;;;;;;2.33;2.13;;;;;21.30;100344.00;;;;5082559;28;20222;-79
2021/05/06 14:11:27;;;;;;;2.10;1.83;;;;;21.40;100343.00;;;;5081529;28;20579;-79
2021/05/06 14:13:56;;;;;;;2.33;1.88;;;;;21.50;100344.00;;;;5082343;28;20776;-79
2021/05/06 14:16:23;;;;;;;4.15;1.58;;;;;21.60;100339.00;;;;5082311;28;20237;-80
2021/05/06 14:18:51;;;;;;;2.20;1.70;;;;;21.70;100342.00;;;;5077969;28;20203;-79
2021/05/06 14:21:21;;;;;;;3.65;2.00;;;;;21.70;100340.00;;;;5092102;28;20292;-79
2021/05/06 14:23:47;;;;;;;2.33;1.70;;;;;21.70;100335.00;;;;5097935;28;20289;-80
2021/05/06 14:26:15;;;;;;;2.70;1.80;;;;;21.60;100335.00;;;;5093212;28;20203;-79
2021/05/06 14:28:42;;;;;;;1.60;1.40;;;;;21.70;100322.00;;;;5076693;28;20565;-79
2021/05/06 14:31:09;;;;;;;2.50;1.88;;;;;21.60;100314.00;;;;5078189;28;20206;-80
2021/05/06 14:33:36;;;;;;;2.03;1.83;;;;;21.60;100316.00;;;;5078326;28;20202;-79
2021/05/06 14:36:06;;;;;;;2.92;2.10;;;;;21.50;100312.00;;;;5077130;28;20742;-79
2021/05/06 14:38:33;;;;;;;2.88;1.58;;;;;21.40;100316.00;;;;5091211;28;20254;-79